createdAt,value
2022-11-24T00:00:02.070Z,6.40
2022-11-24T00:02:03.759Z,6.40
2022-11-24T00:04:06.241Z,6.30
2022-11-24T00:06:09.296Z,6.30
2022-11-24T00:08:10.861Z,6.30
2022-11-24T00:10:12.464Z,6.30
2022-11-24T00:12:14.044Z,6.20
2022-11-24T00:14:15.620Z,6.40
2022-11-24T00:16:18.513Z,6.40
2022-11-24T00:18:20.209Z,6.50
2022-11-24T00:20:21.783Z,6.50
2022-11-24T00:22:23.401Z,6.50
2022-11-24T00:24:25.022Z,6.50
2022-11-24T00:26:30.978Z,6.60
2022-11-24T00:28:33.749Z,6.70
2022-11-24T00:30:35.381Z,6.60
2022-11-24T00:32:36.995Z,6.70
2022-11-24T00:34:38.680Z,6.70
2022-11-24T00:36:40.584Z,6.80
2022-11-24T00:38:42.401Z,6.80
2022-11-24T00:40:43.925Z,6.80
2022-11-24T00:42:45.483Z,6.80
2022-11-24T00:44:47.103Z,6.90
2022-11-24T00:46:48.751Z,6.90
2022-11-24T00:48:50.983Z,6.90
2022-11-24T00:50:59.850Z,6.90
2022-11-24T00:53:01.458Z,6.90
2022-11-24T00:55:03.068Z,6.90
2022-11-24T00:57:04.628Z,6.90
2022-11-24T00:59:06.220Z,6.90
2022-11-24T01:01:10.433Z,6.90
2022-11-24T01:03:15.479Z,6.90
2022-11-24T01:05:17.074Z,6.90
2022-11-24T01:07:18.682Z,7.00
2022-11-24T01:09:22.697Z,6.90
2022-11-24T01:11:26.094Z,6.90
2022-11-24T01:13:27.643Z,6.80
2022-11-24T01:15:30.161Z,6.70
2022-11-24T01:17:31.852Z,6.70
2022-11-24T01:19:33.404Z,6.70
2022-11-24T01:21:34.968Z,6.70
2022-11-24T01:23:36.837Z,6.70
2022-11-24T01:25:39.472Z,6.70
2022-11-24T01:27:41.040Z,6.60
2022-11-24T01:29:42.593Z,6.60
2022-11-24T01:31:44.170Z,6.50
2022-11-24T01:33:45.903Z,6.50
2022-11-24T01:35:47.459Z,6.40
2022-11-24T01:37:49.024Z,6.40
2022-11-24T01:39:50.576Z,6.40
2022-11-24T01:41:52.777Z,6.40
2022-11-24T01:43:54.833Z,6.40
2022-11-24T01:45:57.285Z,6.40
2022-11-24T01:47:59.416Z,6.40
2022-11-24T01:50:01.951Z,6.30
2022-11-24T01:52:07.090Z,6.40
2022-11-24T01:54:11.219Z,6.50
2022-11-24T01:56:13.090Z,6.50
2022-11-24T01:58:18.926Z,6.50
2022-11-24T02:00:20.559Z,6.60
2022-11-24T02:02:22.321Z,6.60
2022-11-24T02:04:26.108Z,6.60
2022-11-24T02:06:29.111Z,6.60
2022-11-24T02:08:46.997Z,6.50
2022-11-24T02:10:48.569Z,6.50
2022-11-24T02:12:51.374Z,6.60
2022-11-24T02:14:54.019Z,6.60
2022-11-24T02:16:56.729Z,6.60
2022-11-24T02:18:58.333Z,6.70
2022-11-24T02:20:59.945Z,6.70
2022-11-24T02:23:05.568Z,6.80
2022-11-24T02:25:07.172Z,6.80
2022-11-24T02:27:09.840Z,6.80
2022-11-24T02:29:12.661Z,6.80
2022-11-24T02:31:14.243Z,6.80
2022-11-24T02:33:16.464Z,6.80
2022-11-24T02:35:18.609Z,6.70
2022-11-24T02:37:20.166Z,6.70
2022-11-24T02:39:21.737Z,6.70
2022-11-24T02:41:24.966Z,6.70
2022-11-24T02:43:29.781Z,6.60
2022-11-24T02:45:31.823Z,6.50
2022-11-24T02:47:33.387Z,6.50
2022-11-24T02:49:35.316Z,6.40
2022-11-24T02:51:36.861Z,6.40
2022-11-24T02:53:38.410Z,6.30
2022-11-24T02:55:39.958Z,6.20
2022-11-24T02:57:41.559Z,6.20
2022-11-24T02:59:43.167Z,6.20
2022-11-24T03:01:44.788Z,6.10
2022-11-24T03:03:46.432Z,6.00
2022-11-24T03:05:48.021Z,6.00
2022-11-24T03:07:49.711Z,6.00
2022-11-24T03:09:51.314Z,5.90
2022-11-24T03:11:52.859Z,5.90
2022-11-24T03:13:54.446Z,5.90
2022-11-24T03:15:56.046Z,5.90
2022-11-24T03:17:57.686Z,6.00
2022-11-24T03:20:04.667Z,5.90
2022-11-24T03:22:06.850Z,5.90
2022-11-24T03:24:08.948Z,5.80
2022-11-24T03:26:11.590Z,5.80
2022-11-24T03:28:13.220Z,5.70
2022-11-24T03:30:14.848Z,5.70
2022-11-24T03:32:16.374Z,5.80
2022-11-24T03:34:17.939Z,5.80
2022-11-24T03:36:19.491Z,5.80
2022-11-24T03:38:21.022Z,5.70
2022-11-24T03:40:22.594Z,5.70
2022-11-24T03:42:24.229Z,5.70
2022-11-24T03:44:25.825Z,5.70
2022-11-24T03:46:27.454Z,5.80
2022-11-24T03:48:29.154Z,5.80
2022-11-24T03:50:30.716Z,5.70
2022-11-24T03:52:32.239Z,5.70
2022-11-24T03:54:34.050Z,5.80
2022-11-24T03:56:35.820Z,5.80
2022-11-24T03:58:37.489Z,5.80
2022-11-24T04:00:39.158Z,5.90
2022-11-24T04:02:40.767Z,5.90
2022-11-24T04:04:47.068Z,5.90
2022-11-24T04:06:51.240Z,5.90
2022-11-24T04:08:52.786Z,5.90
2022-11-24T04:10:54.353Z,5.80
2022-11-24T04:12:55.967Z,5.80
2022-11-24T04:14:59.313Z,5.80
2022-11-24T04:17:00.987Z,5.80
2022-11-24T04:19:02.524Z,5.80
2022-11-24T04:21:04.104Z,5.80
2022-11-24T04:23:05.685Z,5.70
2022-11-24T04:25:07.914Z,5.70
2022-11-24T04:27:09.467Z,5.70
2022-11-24T04:29:11.092Z,5.60
2022-11-24T04:31:12.648Z,5.60
2022-11-24T04:33:14.337Z,5.60
2022-11-24T04:35:16.408Z,5.60
2022-11-24T04:37:17.995Z,5.50
2022-11-24T04:39:26.405Z,5.70
2022-11-24T04:41:30.075Z,5.60
2022-11-24T04:43:35.223Z,5.60
2022-11-24T04:45:40.731Z,5.50
2022-11-24T04:47:42.273Z,5.50
2022-11-24T04:49:43.951Z,5.60
2022-11-24T04:51:45.688Z,5.60
2022-11-24T04:53:48.490Z,5.70
2022-11-24T04:55:50.357Z,5.60
2022-11-24T04:57:51.903Z,5.60
2022-11-24T04:59:54.041Z,5.50
2022-11-24T05:01:55.701Z,5.50
2022-11-24T05:03:57.669Z,5.50
2022-11-24T05:05:59.643Z,5.50
2022-11-24T05:08:01.302Z,5.60
2022-11-24T05:10:21.570Z,5.50
2022-11-24T05:12:24.421Z,5.60
2022-11-24T05:14:27.623Z,5.50
2022-11-24T05:16:29.269Z,5.40
2022-11-24T05:18:30.889Z,5.40
2022-11-24T05:20:32.471Z,5.50
2022-11-24T05:22:34.122Z,5.40
2022-11-24T05:24:35.871Z,5.30
2022-11-24T05:26:37.530Z,5.20
2022-11-24T05:28:39.176Z,5.20
2022-11-24T05:30:41.081Z,5.10
2022-11-24T05:32:42.761Z,5.20
2022-11-24T05:34:49.331Z,5.10
2022-11-24T05:36:54.109Z,5.10
2022-11-24T05:38:55.676Z,5.10
2022-11-24T05:41:01.186Z,5.00
2022-11-24T05:43:02.757Z,5.10
2022-11-24T05:45:04.495Z,5.10
2022-11-24T05:47:06.219Z,5.00
2022-11-24T05:49:07.866Z,5.10
2022-11-24T05:51:09.686Z,5.10
2022-11-24T05:53:13.076Z,5.10
2022-11-24T05:55:15.301Z,5.10
2022-11-24T05:57:18.075Z,5.00
2022-11-24T05:59:19.668Z,5.00
2022-11-24T06:01:21.232Z,4.90
2022-11-24T06:03:23.579Z,5.00
2022-11-24T06:05:25.490Z,5.00
2022-11-24T06:07:27.244Z,5.10
2022-11-24T06:09:29.146Z,5.10
2022-11-24T06:11:30.963Z,5.10
2022-11-24T06:13:32.656Z,5.10
2022-11-24T06:15:34.991Z,5.10
2022-11-24T06:17:36.947Z,5.10
2022-11-24T06:19:41.860Z,5.10
2022-11-24T06:21:43.907Z,5.10
2022-11-24T06:23:47.513Z,5.10
2022-11-24T06:25:51.633Z,5.20
2022-11-24T06:27:55.418Z,5.20
2022-11-24T06:29:57.018Z,5.20
2022-11-24T06:31:58.895Z,5.20
2022-11-24T06:34:00.781Z,5.20
2022-11-24T06:36:04.523Z,5.20
2022-11-24T06:38:07.371Z,5.30
2022-11-24T06:40:09.304Z,5.30
2022-11-24T06:42:10.919Z,5.30
2022-11-24T06:44:12.537Z,5.30
2022-11-24T06:46:14.244Z,5.30
2022-11-24T06:48:15.925Z,5.30
2022-11-24T06:50:17.594Z,5.40
2022-11-24T06:52:19.177Z,5.40
2022-11-24T06:54:23.846Z,5.40
2022-11-24T06:56:25.444Z,5.50
2022-11-24T06:58:27.220Z,5.50
2022-11-24T07:00:29.433Z,5.50
2022-11-24T07:02:31.190Z,5.50
2022-11-24T07:04:33.193Z,5.60
2022-11-24T07:06:34.978Z,5.60
2022-11-24T07:08:36.608Z,5.60
2022-11-24T07:10:38.248Z,5.70
2022-11-24T07:12:39.908Z,5.70
2022-11-24T07:14:41.560Z,5.70
2022-11-24T07:16:43.379Z,5.80
2022-11-24T07:18:45.528Z,5.80
2022-11-24T07:20:47.233Z,5.80
2022-11-24T07:22:48.872Z,5.90
2022-11-24T07:24:50.579Z,5.90
2022-11-24T07:26:52.153Z,5.90
2022-11-24T07:28:54.508Z,5.90
2022-11-24T07:30:56.117Z,5.90
2022-11-24T07:33:01.324Z,6.00
2022-11-24T07:35:03.107Z,6.00
2022-11-24T07:37:04.838Z,6.00
2022-11-24T07:39:07.150Z,6.10
2022-11-24T07:41:10.381Z,6.10
2022-11-24T07:43:17.121Z,6.00
2022-11-24T07:45:21.699Z,6.10
2022-11-24T07:47:23.512Z,6.10
2022-11-24T07:49:25.137Z,6.10
2022-11-24T07:51:30.129Z,6.20
2022-11-24T07:53:33.156Z,6.20
2022-11-24T07:55:34.798Z,6.20
2022-11-24T07:57:36.741Z,6.20
2022-11-24T07:59:38.387Z,6.30
2022-11-24T08:01:40.797Z,6.30
2022-11-24T08:03:42.992Z,6.30
2022-11-24T08:06:16.119Z,6.40
2022-11-24T08:08:14.689Z,6.40
2022-11-24T08:10:16.515Z,6.40
2022-11-24T08:12:21.637Z,6.40
2022-11-24T08:14:23.245Z,6.50
2022-11-24T08:16:24.980Z,6.50
2022-11-24T08:18:27.861Z,6.50
2022-11-24T08:20:29.756Z,6.60
2022-11-24T08:22:31.337Z,6.60
2022-11-24T08:24:33.368Z,6.60
2022-11-24T08:26:35.162Z,6.60
2022-11-24T08:28:38.151Z,6.60
2022-11-24T08:30:39.830Z,6.60
2022-11-24T08:32:41.406Z,6.60
2022-11-24T08:34:43.083Z,6.70
2022-11-24T08:36:44.733Z,6.70
2022-11-24T08:38:46.943Z,6.80
2022-11-24T08:40:48.544Z,6.80
2022-11-24T08:42:50.163Z,6.80
2022-11-24T08:44:58.878Z,6.90
2022-11-24T08:47:00.868Z,6.90
2022-11-24T08:49:02.734Z,6.90
2022-11-24T08:51:08.325Z,6.90
2022-11-24T08:53:09.971Z,7.00
2022-11-24T08:55:11.668Z,7.00
2022-11-24T08:57:17.292Z,7.00
2022-11-24T08:59:23.345Z,7.10
2022-11-24T09:01:25.675Z,7.10
2022-11-24T09:03:27.397Z,7.10
2022-11-24T09:05:51.201Z,7.10
2022-11-24T09:07:50.768Z,7.20
2022-11-24T09:09:52.482Z,7.20
2022-11-24T09:11:54.205Z,7.20
2022-11-24T09:13:55.968Z,7.20
2022-11-24T09:16:02.168Z,7.20
2022-11-24T09:18:03.929Z,7.20
2022-11-24T09:20:05.846Z,7.30
2022-11-24T09:22:07.728Z,7.30
2022-11-24T09:24:10.303Z,7.40
2022-11-24T09:26:13.558Z,7.50
2022-11-24T09:28:15.130Z,7.60
2022-11-24T09:30:16.905Z,7.60
2022-11-24T09:32:18.533Z,7.60
2022-11-24T09:34:20.166Z,7.70
2022-11-24T09:36:21.881Z,7.70
2022-11-24T09:38:23.645Z,7.80
2022-11-24T09:40:25.212Z,7.90
2022-11-24T09:42:26.793Z,7.90
2022-11-24T09:44:40.245Z,8.00
2022-11-24T09:46:41.963Z,7.90
2022-11-24T09:48:46.488Z,7.90
2022-11-24T09:50:49.123Z,7.90
2022-11-24T09:53:10.351Z,7.90
2022-11-24T09:55:27.314Z,7.90
2022-11-24T09:57:35.871Z,8.00
2022-11-24T09:59:40.717Z,8.00
2022-11-24T10:01:43.229Z,7.90
2022-11-24T10:03:49.609Z,8.00
2022-11-24T10:05:51.574Z,8.00
2022-11-24T10:08:01.918Z,8.10
2022-11-24T10:10:03.641Z,8.10
2022-11-24T10:12:14.091Z,8.10
2022-11-24T10:14:33.950Z,8.20
2022-11-24T10:16:43.854Z,8.30
2022-11-24T10:18:51.808Z,8.20
2022-11-24T10:20:59.448Z,8.30
2022-11-24T10:23:18.247Z,8.30
2022-11-24T10:25:24.604Z,8.40
2022-11-24T10:28:00.035Z,8.50
2022-11-24T10:30:01.985Z,8.60
2022-11-24T10:32:05.706Z,8.80
2022-11-24T10:34:13.666Z,9.20
2022-11-24T10:36:20.313Z,9.30
2022-11-24T10:38:22.079Z,9.10
2022-11-24T10:40:57.785Z,9.00
2022-11-24T10:43:00.062Z,8.90
2022-11-24T10:45:02.552Z,8.90
2022-11-24T10:47:04.216Z,8.90
2022-11-24T10:49:06.147Z,8.90
2022-11-24T10:51:31.623Z,9.00
2022-11-24T10:53:34.577Z,9.10
2022-11-24T10:55:54.813Z,9.10
2022-11-24T10:58:14.292Z,9.20
2022-11-24T11:00:20.065Z,9.20
2022-11-24T11:02:38.076Z,9.20
2022-11-24T11:04:39.817Z,9.30
2022-11-24T11:06:41.421Z,9.20
2022-11-24T11:08:43.025Z,9.20
2022-11-24T11:10:45.098Z,9.40
2022-11-24T11:12:47.054Z,9.50
2022-11-24T11:14:48.756Z,9.50
2022-11-24T11:16:52.024Z,9.40
2022-11-24T11:18:53.677Z,9.30
2022-11-24T11:20:56.319Z,9.20
2022-11-24T11:22:59.296Z,9.20
2022-11-24T11:25:03.120Z,9.20
2022-11-24T11:27:16.051Z,9.20
2022-11-24T11:34:25.262Z,10.00
2022-11-24T11:36:31.808Z,10.40
2022-11-24T11:38:35.382Z,10.60
2022-11-24T11:40:36.999Z,10.80
2022-11-24T11:45:03.397Z,11.50
2022-11-24T11:47:15.615Z,12.00
2022-11-24T11:49:17.286Z,11.90
2022-11-24T11:51:37.707Z,11.80
2022-11-24T11:53:50.670Z,11.30
2022-11-24T11:56:02.053Z,10.90
2022-11-24T11:58:35.895Z,10.80
2022-11-24T12:00:39.999Z,10.70
2022-11-24T12:02:53.313Z,10.50
2022-11-24T12:04:55.564Z,10.60
2022-11-24T12:07:06.296Z,10.50
2022-11-24T12:09:21.373Z,10.30
2022-11-24T12:11:28.920Z,10.20
2022-11-24T12:13:48.843Z,10.20
2022-11-24T12:15:52.416Z,10.20
2022-11-24T12:17:54.151Z,10.10
2022-11-24T12:20:04.930Z,10.10
2022-11-24T12:22:09.621Z,10.00
2022-11-24T12:24:17.806Z,10.00
2022-11-24T12:26:32.719Z,10.00
2022-11-24T12:28:37.898Z,10.10
2022-11-24T12:30:56.638Z,10.20
2022-11-24T12:33:01.397Z,10.20
2022-11-24T12:35:06.066Z,10.50
2022-11-24T12:37:27.889Z,10.90
2022-11-24T12:39:49.032Z,11.00
2022-11-24T12:42:09.436Z,11.00
2022-11-24T12:44:23.302Z,11.10
2022-11-24T12:46:45.429Z,11.00
2022-11-24T12:49:01.595Z,10.80
2022-11-24T12:51:04.294Z,10.80
2022-11-24T12:53:12.023Z,10.70
2022-11-24T12:55:17.094Z,10.80
2022-11-24T12:57:22.496Z,11.30
2022-11-24T12:59:37.001Z,11.90
2022-11-24T13:02:03.348Z,11.50
2022-11-24T13:04:15.684Z,11.30
2022-11-24T13:06:29.597Z,11.10
2022-11-24T13:08:31.451Z,11.20
2022-11-24T13:12:55.782Z,11.10
2022-11-24T13:14:57.625Z,11.20
2022-11-24T13:17:47.568Z,11.50
2022-11-24T13:19:39.582Z,11.40
2022-11-24T13:21:41.450Z,11.90
2022-11-24T13:23:43.120Z,12.10
2022-11-24T13:26:04.628Z,12.20
2022-11-24T13:28:06.816Z,12.00
2022-11-24T13:30:27.399Z,12.40
2022-11-24T13:32:32.067Z,12.60
2022-11-24T13:34:42.960Z,12.70
2022-11-24T13:36:53.984Z,12.80
2022-11-24T13:38:55.600Z,12.60
2022-11-24T13:41:21.094Z,12.50
2022-11-24T13:43:19.628Z,12.20
2022-11-24T13:45:39.870Z,11.90
2022-11-24T13:47:43.202Z,11.70
2022-11-24T13:49:48.845Z,11.50
2022-11-24T13:51:56.912Z,11.40
2022-11-24T13:54:00.728Z,11.20
2022-11-24T13:56:11.436Z,11.10
2022-11-24T13:58:13.079Z,11.10
2022-11-24T14:00:26.888Z,11.00
2022-11-24T14:02:30.890Z,11.00
2022-11-24T14:04:43.200Z,11.10
2022-11-24T14:06:46.324Z,11.30
2022-11-24T14:08:48.479Z,11.60
2022-11-24T14:10:50.531Z,11.70
2022-11-24T14:15:22.366Z,11.80
2022-11-24T14:17:25.173Z,12.10
2022-11-24T14:19:30.886Z,12.10
2022-11-24T14:21:35.816Z,12.40
2022-11-24T14:23:40.902Z,12.60
2022-11-24T14:25:50.264Z,12.70
2022-11-24T14:27:51.933Z,12.60
2022-11-24T14:30:02.763Z,12.30
2022-11-24T14:32:05.077Z,12.30
2022-11-24T14:34:17.074Z,12.20
2022-11-24T14:36:18.759Z,12.10
2022-11-24T14:38:20.373Z,11.90
2022-11-24T14:40:40.451Z,11.70
2022-11-24T14:42:48.534Z,11.40
2022-11-24T14:45:00.682Z,11.30
2022-11-24T14:47:06.699Z,11.20
2022-11-24T14:49:08.641Z,11.20
2022-11-24T14:51:13.166Z,11.20
2022-11-24T14:53:15.960Z,11.20
2022-11-24T14:55:31.215Z,11.10
2022-11-24T14:57:34.146Z,11.10
2022-11-24T14:59:38.155Z,11.20
2022-11-24T15:01:39.878Z,11.10
2022-11-24T15:03:41.594Z,11.00
2022-11-24T15:05:50.883Z,11.00
2022-11-24T15:08:01.071Z,10.90
2022-11-24T15:10:03.547Z,10.90
2022-11-24T15:12:06.821Z,10.90
2022-11-24T15:14:25.910Z,10.80
2022-11-24T15:16:28.659Z,10.80
2022-11-24T15:18:36.009Z,10.80
2022-11-24T15:20:41.536Z,10.70
2022-11-24T15:22:45.983Z,10.70
2022-11-24T15:24:53.185Z,10.70
2022-11-24T15:27:01.423Z,10.60
2022-11-24T15:29:03.001Z,10.50
2022-11-24T15:31:14.151Z,10.50
2022-11-24T15:33:17.161Z,10.40
2022-11-24T15:35:19.062Z,10.40
2022-11-24T15:37:20.674Z,10.40
2022-11-24T15:39:22.200Z,10.40
2022-11-24T15:41:27.905Z,10.30
2022-11-24T15:43:29.616Z,10.20
2022-11-24T15:45:33.882Z,10.10
2022-11-24T15:47:36.575Z,10.10
2022-11-24T15:49:38.194Z,9.90
2022-11-24T15:51:42.372Z,9.80
2022-11-24T15:53:49.844Z,9.70
2022-11-24T15:55:52.161Z,9.60
2022-11-24T15:57:53.872Z,9.50
2022-11-24T15:59:55.622Z,9.30
2022-11-24T16:01:57.364Z,9.20
2022-11-24T16:03:59.371Z,9.10
2022-11-24T16:06:01.074Z,9.00
2022-11-24T16:08:02.747Z,8.90
2022-11-24T16:10:04.979Z,8.90
2022-11-24T16:12:08.168Z,8.90
2022-11-24T16:14:09.787Z,8.70
2022-11-24T16:16:12.768Z,8.60
2022-11-24T16:18:14.557Z,8.50
2022-11-24T16:20:16.226Z,8.40
2022-11-24T16:24:34.997Z,8.20
2022-11-24T16:26:38.959Z,8.10
2022-11-24T16:28:41.862Z,8.00
2022-11-24T16:30:48.697Z,8.00
2022-11-24T16:32:51.472Z,7.90
2022-11-24T16:34:54.293Z,7.80
2022-11-24T16:36:55.890Z,7.80
2022-11-24T16:39:01.225Z,7.70
2022-11-24T16:41:02.939Z,7.70
2022-11-24T16:43:04.636Z,7.70
2022-11-24T16:45:06.505Z,7.60
2022-11-24T16:47:08.121Z,7.50
2022-11-24T16:49:09.755Z,7.40
2022-11-24T16:51:11.912Z,7.40
2022-11-24T16:53:13.777Z,7.40
2022-11-24T16:55:15.494Z,7.30
2022-11-24T16:57:18.575Z,7.30
2022-11-24T16:59:21.355Z,7.20
2022-11-24T17:01:24.236Z,7.20
2022-11-24T17:03:26.119Z,7.10
2022-11-24T17:05:28.688Z,7.00
2022-11-24T17:07:31.627Z,7.00
2022-11-24T17:11:50.283Z,7.00
2022-11-24T17:13:51.905Z,6.90
2022-11-24T17:15:54.470Z,6.90
2022-11-24T17:18:22.929Z,6.90
2022-11-24T17:20:19.699Z,6.80
2022-11-24T17:22:23.744Z,6.80
2022-11-24T17:24:26.662Z,6.70
2022-11-24T17:26:30.740Z,6.70
2022-11-24T17:28:34.858Z,6.60
2022-11-24T17:30:37.940Z,6.50
2022-11-24T17:32:39.615Z,6.50
2022-11-24T17:34:41.301Z,6.50
2022-11-24T17:36:46.584Z,6.50
2022-11-24T17:38:56.961Z,6.40
2022-11-24T17:40:59.961Z,6.40
2022-11-24T17:43:03.686Z,6.40
2022-11-24T17:45:05.520Z,6.30
2022-11-24T17:47:07.336Z,6.30
2022-11-24T17:51:28.618Z,6.20
2022-11-24T17:53:30.715Z,6.20
2022-11-24T17:55:33.087Z,6.20
2022-11-24T17:57:35.976Z,6.10
2022-11-24T17:59:37.732Z,6.00
2022-11-24T18:01:40.435Z,6.00
2022-11-24T18:03:47.735Z,5.90
2022-11-24T18:08:08.391Z,6.00
2022-11-24T18:10:15.128Z,6.00
2022-11-24T18:12:18.011Z,5.90
2022-11-24T18:14:20.801Z,5.90
2022-11-24T18:16:25.027Z,5.80
2022-11-24T18:18:27.903Z,5.80
2022-11-24T18:20:30.611Z,5.90
2022-11-24T18:23:04.064Z,5.80
2022-11-24T18:27:28.297Z,5.60
2022-11-24T18:29:31.997Z,5.50
2022-11-24T18:31:36.506Z,5.50
2022-11-24T18:33:39.065Z,5.50
2022-11-24T18:35:41.006Z,5.60
2022-11-24T18:37:44.388Z,5.50
2022-11-24T18:39:51.711Z,5.40
2022-11-24T18:41:54.738Z,5.50
2022-11-24T18:43:56.417Z,5.50
2022-11-24T18:45:58.281Z,5.40
2022-11-24T18:50:19.131Z,5.60
2022-11-24T18:52:24.426Z,5.30
2022-11-24T18:54:40.174Z,5.30
2022-11-24T18:56:42.827Z,5.10
2022-11-24T18:58:45.951Z,5.20
2022-11-24T19:00:51.083Z,5.10
2022-11-24T19:03:02.001Z,5.10
2022-11-24T19:05:04.797Z,5.00
2022-11-24T19:09:28.372Z,5.00
2022-11-24T19:18:29.796Z,4.80
2022-11-24T19:20:37.863Z,4.70
2022-11-24T19:22:40.914Z,4.70
2022-11-24T19:24:42.936Z,4.70
2022-11-24T19:26:46.719Z,4.70
2022-11-24T19:28:53.543Z,4.70
2022-11-24T19:30:59.592Z,4.80
2022-11-24T19:33:01.810Z,4.80
2022-11-24T19:35:05.728Z,4.70
2022-11-24T19:37:07.822Z,4.70
2022-11-24T19:39:21.793Z,4.70
2022-11-24T19:41:27.327Z,4.60
2022-11-24T19:43:31.278Z,4.70
2022-11-24T19:45:34.496Z,4.60
2022-11-24T19:50:10.198Z,4.60
2022-11-24T19:52:12.577Z,4.60
2022-11-24T19:56:36.062Z,4.60
2022-11-24T19:58:39.138Z,4.70
2022-11-24T20:00:55.902Z,4.70
2022-11-24T20:02:59.116Z,4.50
2022-11-24T20:05:03.022Z,4.40
2022-11-24T20:09:27.248Z,4.40
2022-11-24T20:11:41.575Z,4.50
2022-11-24T20:13:44.420Z,4.40
2022-11-24T20:15:46.169Z,4.40
2022-11-24T20:17:49.062Z,4.30
2022-11-24T20:19:50.622Z,4.30
2022-11-24T20:21:53.513Z,4.20
2022-11-24T20:23:57.752Z,4.30
2022-11-24T20:26:04.504Z,4.30
2022-11-24T20:28:07.386Z,4.20
2022-11-24T20:30:18.232Z,4.20
2022-11-24T20:32:21.378Z,4.10
2022-11-24T20:34:24.206Z,4.00
2022-11-24T20:36:28.200Z,3.90
2022-11-24T20:38:31.419Z,3.90
2022-11-24T20:40:34.272Z,4.00
2022-11-24T20:42:37.515Z,4.20
2022-11-24T20:44:41.493Z,4.30
2022-11-24T20:46:44.929Z,4.20
2022-11-24T20:48:47.463Z,4.20
2022-11-24T20:50:51.432Z,4.10
2022-11-24T20:55:11.694Z,4.10
2022-11-24T20:57:13.625Z,4.00
2022-11-24T20:59:23.101Z,4.10
2022-11-24T21:01:31.025Z,4.00
2022-11-24T21:03:34.086Z,4.10
2022-11-24T21:05:38.532Z,4.10
2022-11-24T21:07:40.355Z,4.10
2022-11-24T21:09:43.352Z,4.00
2022-11-24T21:11:47.221Z,4.00
2022-11-24T21:13:49.191Z,4.00
2022-11-24T21:15:50.896Z,4.00
2022-11-24T21:17:53.578Z,3.90
2022-11-24T21:19:59.660Z,3.90
2022-11-24T21:22:06.204Z,4.00
2022-11-24T21:24:18.163Z,4.00
2022-11-24T21:26:20.734Z,3.90
2022-11-24T21:28:22.513Z,3.80
2022-11-24T21:30:25.345Z,3.80
2022-11-24T21:32:29.580Z,3.70
2022-11-24T21:34:32.596Z,3.80
2022-11-24T21:36:35.498Z,3.80
2022-11-24T21:38:39.358Z,3.80
2022-11-24T21:40:47.340Z,3.80
2022-11-24T21:42:55.654Z,3.90
2022-11-24T21:45:06.804Z,3.70
2022-11-24T21:49:34.059Z,3.50
2022-11-24T21:51:38.117Z,3.40
2022-11-24T21:53:43.614Z,3.50
2022-11-24T21:55:54.372Z,3.50
2022-11-24T21:57:59.031Z,3.50
2022-11-24T22:00:04.563Z,3.50
2022-11-24T22:02:10.219Z,3.60
2022-11-24T22:04:17.533Z,3.50
2022-11-24T22:06:23.297Z,3.40
2022-11-24T22:08:26.308Z,3.50
2022-11-24T22:10:28.458Z,3.40
2022-11-24T22:12:31.922Z,3.40
2022-11-24T22:14:40.081Z,3.40
2022-11-24T22:16:49.407Z,3.40
2022-11-24T22:18:55.533Z,3.40
2022-11-24T22:20:57.155Z,3.50
2022-11-24T22:22:59.963Z,3.30
2022-11-24T22:25:02.899Z,3.30
2022-11-24T22:27:05.724Z,3.40
2022-11-24T22:29:08.655Z,3.40
2022-11-24T22:31:19.372Z,3.40
2022-11-24T22:33:21.131Z,3.30
2022-11-24T23:09:30.590Z,2.90
2022-11-24T23:11:38.225Z,2.90
2022-11-24T23:13:42.633Z,2.90
2022-11-24T23:15:48.023Z,2.90
2022-11-24T23:17:50.270Z,3.00
2022-11-24T23:19:55.138Z,2.90
2022-11-24T23:21:57.908Z,2.90
2022-11-24T23:24:01.050Z,3.00
2022-11-24T23:26:05.463Z,2.90
2022-11-24T23:28:08.719Z,2.80
2022-11-24T23:30:15.623Z,2.70
2022-11-24T23:32:28.511Z,2.70
2022-11-24T23:34:44.253Z,2.70
2022-11-24T23:36:54.432Z,2.70
2022-11-24T23:39:09.774Z,2.60
2022-11-24T23:48:37.617Z,2.60
2022-11-24T23:50:44.879Z,2.70
2022-11-24T23:52:52.719Z,2.60
2022-11-24T23:54:56.855Z,2.50
2022-11-24T23:57:01.171Z,2.50
2022-11-24T23:59:03.701Z,2.60
